createdAt,value
2017-11-03T00:01:30.455Z,10.90
2017-11-03T00:03:57.538Z,10.80
2017-11-03T00:06:23.903Z,10.70
2017-11-03T00:08:50.246Z,10.60
2017-11-03T00:11:16.601Z,10.60
2017-11-03T00:13:43.699Z,10.50
2017-11-03T00:16:10.111Z,10.50
2017-11-03T00:18:36.459Z,10.60
2017-11-03T00:21:02.835Z,10.60
2017-11-03T00:23:29.915Z,10.70
2017-11-03T00:25:56.298Z,10.70
2017-11-03T00:28:22.646Z,10.70
2017-11-03T00:30:50.014Z,10.70
2017-11-03T00:33:16.379Z,10.70
2017-11-03T00:35:42.769Z,10.80
2017-11-03T00:38:09.854Z,10.70
2017-11-03T00:40:36.204Z,10.70
2017-11-03T00:43:02.540Z,10.60
2017-11-03T00:45:28.890Z,10.60
2017-11-03T00:47:55.250Z,10.60
2017-11-03T00:50:21.630Z,10.70
2017-11-03T00:52:47.994Z,10.60
2017-11-03T00:55:15.087Z,10.80
2017-11-03T00:57:41.477Z,10.80
2017-11-03T01:00:07.866Z,11.00
2017-11-03T01:02:34.247Z,11.00
2017-11-03T01:05:00.575Z,10.90
2017-11-03T01:07:27.658Z,10.90
2017-11-03T01:09:54.367Z,10.90
2017-11-03T01:12:20.727Z,10.80
2017-11-03T01:14:47.093Z,10.60
2017-11-03T01:17:13.471Z,10.70
2017-11-03T01:19:39.824Z,10.70
2017-11-03T01:22:06.199Z,10.60
2017-11-03T01:24:33.282Z,10.60
2017-11-03T01:26:59.666Z,10.60
2017-11-03T01:29:26.030Z,10.60
2017-11-03T01:31:52.427Z,10.70
2017-11-03T01:34:25.745Z,10.70
2017-11-03T01:37:03.256Z,10.80
2017-11-03T01:39:29.666Z,10.80
2017-11-03T01:41:56.755Z,10.80
2017-11-03T01:44:23.114Z,10.70
2017-11-03T01:46:50.498Z,10.60
2017-11-03T01:49:16.850Z,10.50
2017-11-03T01:51:43.316Z,10.40
2017-11-03T01:54:10.487Z,10.40
2017-11-03T01:56:36.858Z,10.40
2017-11-03T01:59:03.226Z,10.40
2017-11-03T02:01:29.592Z,10.40
2017-11-03T02:03:56.127Z,10.30
2017-11-03T02:06:23.503Z,10.20
2017-11-03T02:08:49.867Z,10.20
2017-11-03T02:11:16.297Z,10.20
2017-11-03T02:13:42.652Z,10.40
2017-11-03T02:16:09.027Z,10.60
2017-11-03T02:18:36.145Z,10.60
2017-11-03T02:21:02.583Z,10.60
2017-11-03T02:23:28.975Z,10.70
2017-11-03T02:25:55.371Z,10.70
2017-11-03T02:28:22.459Z,10.80
2017-11-03T02:30:48.844Z,10.70
2017-11-03T02:33:15.970Z,10.80
2017-11-03T02:35:42.326Z,10.80
2017-11-03T02:38:09.450Z,10.80
2017-11-03T02:40:35.833Z,10.80
2017-11-03T02:43:02.190Z,10.90
2017-11-03T02:45:28.522Z,10.80
2017-11-03T02:47:54.884Z,10.90
2017-11-03T02:50:21.958Z,10.80
2017-11-03T02:52:48.286Z,10.80
2017-11-03T02:55:14.678Z,10.80
2017-11-03T02:57:41.038Z,10.80
2017-11-03T03:00:08.128Z,10.60
2017-11-03T03:02:34.467Z,10.60
2017-11-03T03:05:00.788Z,10.60
2017-11-03T03:07:27.162Z,10.70
2017-11-03T03:09:53.549Z,10.70
2017-11-03T03:12:20.632Z,10.70
2017-11-03T03:14:47.040Z,10.60
2017-11-03T03:17:13.877Z,10.60
2017-11-03T03:19:40.261Z,10.60
2017-11-03T03:22:07.358Z,10.60
2017-11-03T03:24:33.759Z,10.60
2017-11-03T03:27:00.170Z,10.60
2017-11-03T03:29:27.274Z,10.50
2017-11-03T03:31:53.687Z,10.50
2017-11-03T03:34:20.814Z,10.50
2017-11-03T03:36:47.171Z,10.40
2017-11-03T03:39:13.578Z,10.30
2017-11-03T03:41:39.969Z,10.30
2017-11-03T03:44:06.562Z,10.30
2017-11-03T03:46:32.975Z,10.30
2017-11-03T03:48:59.342Z,10.20
2017-11-03T03:51:25.712Z,10.10
2017-11-03T03:53:52.058Z,10.10
2017-11-03T03:56:19.182Z,10.20
2017-11-03T03:58:45.669Z,10.20
2017-11-03T04:01:14.207Z,10.20
2017-11-03T04:03:41.338Z,10.10
2017-11-03T04:06:07.686Z,10.00
2017-11-03T04:08:34.062Z,10.10
2017-11-03T04:11:00.478Z,10.10
2017-11-03T04:13:26.887Z,10.10
2017-11-03T04:15:53.987Z,10.10
2017-11-03T04:18:20.318Z,10.10
2017-11-03T04:20:46.714Z,10.10
2017-11-03T04:23:13.061Z,10.20
2017-11-03T04:25:39.446Z,10.10
2017-11-03T04:28:05.858Z,10.10
2017-11-03T04:30:33.206Z,10.00
2017-11-03T04:32:59.646Z,10.10
2017-11-03T04:35:27.058Z,10.20
2017-11-03T04:37:53.382Z,10.10
2017-11-03T04:40:20.126Z,10.10
2017-11-03T04:42:46.510Z,10.10
2017-11-03T04:45:12.891Z,10.20
2017-11-03T04:47:40.355Z,10.10
2017-11-03T04:50:06.738Z,10.00
2017-11-03T04:52:33.091Z,10.00
2017-11-03T04:55:00.216Z,10.10
2017-11-03T04:57:26.570Z,10.10
2017-11-03T04:59:53.645Z,10.30
2017-11-03T05:02:19.992Z,10.20
2017-11-03T05:04:46.346Z,10.30
2017-11-03T05:07:13.740Z,10.30
2017-11-03T05:09:41.882Z,10.30
2017-11-03T05:12:08.237Z,10.30
2017-11-03T05:14:35.309Z,10.20
2017-11-03T05:17:02.643Z,10.20
2017-11-03T05:19:29.750Z,10.30
2017-11-03T05:21:56.107Z,10.20
2017-11-03T05:24:22.577Z,10.30
2017-11-03T05:26:49.010Z,10.40
2017-11-03T05:29:15.331Z,10.40
2017-11-03T05:31:41.694Z,10.40
2017-11-03T05:34:08.034Z,10.40
2017-11-03T05:36:34.407Z,10.30
2017-11-03T05:39:01.535Z,10.30
2017-11-03T05:41:27.929Z,10.30
2017-11-03T05:43:54.301Z,10.30
2017-11-03T05:46:20.631Z,10.30
2017-11-03T05:48:47.052Z,10.30
2017-11-03T05:51:13.439Z,10.20
2017-11-03T05:53:39.829Z,10.10
2017-11-03T05:56:06.168Z,10.00
2017-11-03T05:58:33.253Z,9.90
2017-11-03T06:00:59.574Z,9.90
2017-11-03T06:03:25.916Z,10.00
2017-11-03T06:05:53.262Z,9.90
2017-11-03T06:08:19.699Z,9.90
2017-11-03T06:10:46.243Z,10.00
2017-11-03T06:13:12.638Z,10.10
2017-11-03T06:15:39.715Z,10.20
2017-11-03T06:18:06.108Z,10.20
2017-11-03T06:20:33.214Z,10.30
2017-11-03T06:23:00.579Z,10.20
2017-11-03T06:25:26.930Z,10.30
2017-11-03T06:27:53.354Z,10.30
2017-11-03T06:30:19.699Z,10.20
2017-11-03T06:32:46.079Z,10.20
2017-11-03T06:35:12.419Z,10.30
2017-11-03T06:37:38.768Z,10.30
2017-11-03T06:40:05.154Z,10.10
2017-11-03T06:42:31.514Z,10.10
2017-11-03T06:44:57.925Z,10.20
2017-11-03T06:47:24.322Z,10.20
2017-11-03T06:49:51.436Z,10.10
2017-11-03T06:52:17.791Z,10.00
2017-11-03T06:54:44.191Z,9.90
2017-11-03T06:57:10.582Z,9.80
2017-11-03T06:59:36.938Z,9.90
2017-11-03T07:02:03.366Z,10.00
2017-11-03T07:04:29.726Z,10.10
2017-11-03T07:06:56.106Z,10.10
2017-11-03T07:09:22.535Z,10.10
2017-11-03T07:11:49.691Z,10.00
2017-11-03T07:14:16.098Z,10.00
2017-11-03T07:16:42.459Z,10.10
2017-11-03T07:19:08.831Z,10.10
2017-11-03T07:21:35.183Z,10.30
2017-11-03T07:24:01.549Z,10.40
2017-11-03T07:26:27.908Z,10.50
2017-11-03T07:28:54.262Z,10.50
2017-11-03T07:31:20.593Z,10.50
2017-11-03T07:33:46.941Z,10.40
2017-11-03T07:36:13.282Z,10.40
2017-11-03T07:38:40.427Z,10.60
2017-11-03T07:41:07.520Z,10.70
2017-11-03T07:43:33.914Z,10.70
2017-11-03T07:46:01.004Z,11.00
2017-11-03T07:48:27.442Z,10.90
2017-11-03T07:50:53.772Z,11.10
2017-11-03T07:53:20.107Z,10.90
2017-11-03T07:55:46.499Z,10.80
2017-11-03T07:58:12.830Z,10.80
2017-11-03T08:00:39.190Z,10.90
2017-11-03T08:03:05.554Z,11.00
2017-11-03T08:05:32.909Z,11.10
2017-11-03T08:07:59.281Z,11.20
2017-11-03T08:10:25.643Z,11.20
2017-11-03T08:12:51.972Z,11.30
2017-11-03T08:15:18.323Z,11.20
2017-11-03T08:17:44.687Z,11.10
2017-11-03T08:20:11.768Z,10.50
2017-11-03T08:22:38.157Z,10.50
2017-11-03T08:25:05.240Z,10.60
2017-11-03T08:27:31.609Z,10.70
2017-11-03T08:29:57.926Z,10.60
2017-11-03T08:32:24.282Z,10.60
2017-11-03T08:34:50.611Z,10.50
2017-11-03T08:37:16.971Z,10.60
2017-11-03T08:39:44.057Z,10.90
2017-11-03T08:42:10.394Z,10.90
2017-11-03T08:44:36.742Z,11.00
2017-11-03T08:47:03.111Z,11.10
2017-11-03T08:49:30.192Z,11.50
2017-11-03T08:51:57.258Z,11.70
2017-11-03T08:54:23.638Z,11.70
2017-11-03T08:56:50.790Z,12.10
2017-11-03T08:59:17.873Z,12.20
2017-11-03T09:01:45.219Z,12.20
2017-11-03T09:04:11.559Z,12.30
2017-11-03T09:06:37.922Z,12.50
2017-11-03T09:09:04.311Z,12.30
2017-11-03T09:11:30.671Z,12.40
2017-11-03T09:13:57.038Z,12.40
2017-11-03T09:16:24.181Z,12.60
2017-11-03T09:18:51.282Z,12.80
2017-11-03T09:21:17.659Z,12.80
2017-11-03T09:23:44.775Z,13.00
2017-11-03T09:26:11.142Z,13.00
2017-11-03T09:28:38.250Z,13.10
2017-11-03T09:31:04.606Z,13.10
2017-11-03T09:33:30.978Z,12.90
2017-11-03T09:35:57.338Z,12.80
2017-11-03T09:38:23.702Z,12.70
2017-11-03T09:40:50.058Z,12.60
2017-11-03T09:43:17.173Z,12.60
2017-11-03T09:45:43.498Z,12.60
2017-11-03T09:48:09.870Z,12.70
2017-11-03T09:50:37.006Z,12.50
2017-11-03T09:53:04.111Z,12.50
2017-11-03T09:55:30.484Z,12.50
2017-11-03T09:57:57.572Z,12.40
2017-11-03T10:00:23.919Z,12.40
2017-11-03T10:02:50.294Z,12.40
2017-11-03T10:05:17.391Z,12.30
2017-11-03T10:07:43.739Z,12.30
2017-11-03T10:10:10.117Z,12.30
2017-11-03T10:12:37.238Z,12.30
2017-11-03T10:15:03.583Z,12.20
2017-11-03T10:17:30.687Z,12.50
2017-11-03T10:19:58.038Z,12.50
2017-11-03T10:22:24.390Z,12.50
2017-11-03T10:24:50.839Z,12.60
2017-11-03T10:27:17.194Z,12.50
2017-11-03T10:29:43.538Z,12.60
2017-11-03T10:32:10.939Z,12.70
2017-11-03T10:34:37.292Z,12.80
2017-11-03T10:37:04.380Z,12.80
2017-11-03T10:39:30.738Z,12.80
2017-11-03T10:41:57.075Z,12.70
2017-11-03T10:44:23.423Z,12.70
2017-11-03T10:46:49.782Z,12.70
2017-11-03T10:49:16.144Z,12.90
2017-11-03T10:51:42.520Z,13.00
2017-11-03T10:54:08.892Z,13.20
2017-11-03T10:56:35.267Z,13.50
2017-11-03T10:59:01.594Z,13.70
2017-11-03T11:01:27.959Z,13.80
2017-11-03T11:03:55.084Z,13.50
2017-11-03T11:06:21.446Z,13.40
2017-11-03T11:08:47.826Z,13.70
2017-11-03T11:11:14.158Z,13.90
2017-11-03T11:13:40.539Z,14.00
2017-11-03T11:16:06.882Z,14.10
2017-11-03T11:18:33.258Z,14.30
2017-11-03T11:21:00.623Z,14.40
2017-11-03T11:23:27.007Z,14.40
2017-11-03T11:25:53.349Z,14.60
2017-11-03T11:28:19.696Z,14.40
2017-11-03T11:30:46.091Z,14.30
2017-11-03T11:33:12.477Z,14.30
2017-11-03T11:35:38.834Z,14.20
2017-11-03T11:38:05.957Z,14.20
2017-11-03T11:40:32.339Z,14.20
2017-11-03T11:42:58.706Z,14.20
2017-11-03T11:45:25.121Z,14.30
2017-11-03T11:47:51.502Z,14.30
2017-11-03T11:50:18.627Z,14.60
2017-11-03T11:52:45.020Z,14.50
2017-11-03T11:55:12.153Z,14.90
2017-11-03T11:57:38.552Z,15.00
2017-11-03T12:00:04.943Z,15.20
2017-11-03T12:02:31.304Z,15.50
2017-11-03T12:05:01.270Z,15.70
2017-11-03T12:07:27.651Z,15.90
2017-11-03T12:09:54.031Z,16.20
2017-11-03T12:12:20.426Z,16.30
2017-11-03T12:14:46.787Z,16.50
2017-11-03T12:17:13.148Z,16.50
2017-11-03T12:19:40.538Z,16.60
2017-11-03T12:22:06.944Z,16.70
2017-11-03T12:24:33.310Z,16.60
2017-11-03T12:27:01.442Z,16.50
2017-11-03T12:29:27.853Z,16.40
2017-11-03T12:31:55.162Z,16.40
2017-11-03T12:34:22.287Z,15.80
2017-11-03T12:36:48.663Z,15.80
2017-11-03T12:39:15.063Z,16.10
2017-11-03T12:41:41.464Z,16.80
2017-11-03T12:44:07.849Z,17.40
2017-11-03T12:46:34.975Z,17.50
2017-11-03T12:49:01.350Z,17.40
2017-11-03T12:51:27.719Z,17.20
2017-11-03T12:53:54.175Z,17.00
2017-11-03T12:56:20.575Z,16.60
2017-11-03T12:58:46.948Z,16.40
2017-11-03T13:01:14.086Z,16.10
2017-11-03T13:03:40.481Z,16.10
2017-11-03T13:06:06.851Z,15.60
2017-11-03T13:08:33.246Z,15.30
2017-11-03T13:10:59.646Z,15.00
2017-11-03T13:13:26.042Z,14.70
2017-11-03T13:15:52.419Z,14.40
2017-11-03T13:18:18.806Z,14.30
2017-11-03T13:20:45.324Z,14.10
2017-11-03T13:23:11.710Z,14.10
2017-11-03T13:25:38.108Z,14.00
2017-11-03T13:28:04.547Z,13.90
2017-11-03T13:30:32.691Z,14.00
2017-11-03T13:32:59.108Z,14.00
2017-11-03T13:35:25.503Z,14.20
2017-11-03T13:37:51.862Z,14.40
2017-11-03T13:40:18.235Z,14.80
2017-11-03T13:42:44.620Z,15.40
2017-11-03T13:45:11.004Z,15.50
2017-11-03T13:47:37.355Z,15.30
2017-11-03T13:50:04.832Z,15.60
2017-11-03T13:52:31.214Z,16.20
2017-11-03T13:54:57.603Z,16.60
2017-11-03T13:57:23.958Z,16.80
2017-11-03T13:59:50.341Z,16.90
2017-11-03T14:02:16.686Z,16.80
2017-11-03T14:04:43.067Z,17.10
2017-11-03T14:07:09.439Z,17.50
2017-11-03T14:09:35.864Z,18.10
2017-11-03T14:12:02.975Z,19.10
2017-11-03T14:14:29.320Z,19.10
2017-11-03T14:16:55.648Z,19.40
2017-11-03T14:19:22.020Z,20.10
2017-11-03T14:21:48.370Z,20.30
2017-11-03T14:24:14.703Z,20.40
2017-11-03T14:26:41.098Z,20.60
2017-11-03T14:29:07.476Z,20.80
2017-11-03T14:31:33.838Z,20.80
2017-11-03T14:34:00.167Z,20.50
2017-11-03T14:36:27.253Z,20.40
2017-11-03T14:38:53.575Z,20.40
2017-11-03T14:41:19.922Z,20.40
2017-11-03T14:43:46.270Z,20.10
2017-11-03T14:46:12.639Z,20.20
2017-11-03T14:48:38.958Z,20.00
2017-11-03T14:51:05.306Z,20.10
2017-11-03T14:53:32.394Z,19.70
2017-11-03T14:55:58.746Z,19.70
2017-11-03T14:58:25.107Z,19.50
2017-11-03T15:00:51.435Z,19.30
2017-11-03T15:03:17.777Z,19.30
2017-11-03T15:05:44.877Z,19.10
2017-11-03T15:08:11.201Z,19.10
2017-11-03T15:10:37.534Z,19.30
2017-11-03T15:13:03.909Z,19.30
2017-11-03T15:15:30.238Z,18.80
2017-11-03T15:17:56.583Z,18.30
2017-11-03T15:20:23.639Z,16.80
2017-11-03T15:22:51.031Z,16.70
2017-11-03T15:25:17.396Z,16.20
2017-11-03T15:27:43.763Z,15.70
2017-11-03T15:30:10.132Z,15.20
2017-11-03T15:32:36.530Z,14.70
2017-11-03T15:35:02.921Z,14.30
2017-11-03T15:37:29.278Z,14.00
2017-11-03T15:39:55.630Z,13.80
2017-11-03T15:42:24.265Z,13.40
2017-11-03T15:44:52.611Z,13.20
2017-11-03T15:47:22.411Z,13.00
2017-11-03T15:49:51.065Z,12.70
2017-11-03T15:52:22.809Z,12.50
2017-11-03T15:54:50.309Z,11.90
2017-11-03T15:57:16.672Z,11.90
2017-11-03T15:59:43.078Z,11.60
2017-11-03T16:02:09.452Z,11.40
2017-11-03T16:04:36.558Z,11.10
2017-11-03T16:07:02.927Z,11.10
2017-11-03T16:09:29.995Z,10.70
2017-11-03T16:11:56.343Z,10.60
2017-11-03T16:14:22.683Z,10.40
2017-11-03T16:16:49.018Z,10.20
2017-11-03T16:19:15.426Z,10.10
2017-11-03T16:21:41.821Z,9.90
2017-11-03T16:24:08.145Z,9.80
2017-11-03T16:26:34.493Z,9.70
2017-11-03T16:29:01.605Z,9.50
2017-11-03T16:31:27.932Z,9.50
2017-11-03T16:33:54.323Z,9.50
2017-11-03T16:36:20.663Z,9.40
2017-11-03T16:38:47.019Z,9.40
2017-11-03T16:41:13.362Z,9.30
2017-11-03T16:43:39.746Z,9.40
2017-11-03T16:46:06.107Z,9.30
2017-11-03T16:48:32.481Z,9.20
2017-11-03T16:50:58.834Z,9.10
2017-11-03T16:53:25.935Z,9.00
2017-11-03T16:55:52.309Z,9.00
2017-11-03T16:58:19.431Z,9.00
2017-11-03T17:00:45.825Z,8.90
2017-11-03T17:03:13.219Z,8.90
2017-11-03T17:05:39.555Z,8.90
2017-11-03T17:08:05.895Z,8.90
2017-11-03T17:10:33.010Z,8.80
2017-11-03T17:13:00.451Z,8.80
2017-11-03T17:15:26.823Z,8.90
2017-11-03T17:17:53.323Z,8.80
2017-11-03T17:20:20.295Z,8.80
2017-11-03T17:22:47.641Z,8.70
2017-11-03T17:25:16.726Z,8.70
2017-11-03T17:27:44.583Z,8.70
2017-11-03T17:30:11.863Z,8.70
2017-11-03T17:32:38.239Z,8.70
2017-11-03T17:35:05.493Z,8.60
2017-11-03T17:37:32.573Z,8.40
2017-11-03T17:40:01.000Z,8.30
2017-11-03T17:42:29.838Z,8.10
2017-11-03T17:44:57.664Z,8.10
2017-11-03T17:47:24.042Z,8.00
2017-11-03T17:49:50.398Z,8.00
2017-11-03T17:52:16.771Z,8.00
2017-11-03T17:54:43.171Z,8.10
2017-11-03T17:57:10.234Z,8.10
2017-11-03T17:59:37.326Z,8.00
2017-11-03T18:02:04.703Z,8.00
2017-11-03T18:04:31.046Z,8.10
2017-11-03T18:06:57.418Z,8.10
2017-11-03T18:09:23.798Z,8.10
2017-11-03T18:11:50.139Z,8.20
2017-11-03T18:14:17.249Z,8.10
2017-11-03T18:16:43.588Z,8.10
2017-11-03T18:19:09.942Z,8.00
2017-11-03T18:21:36.303Z,8.00
2017-11-03T18:24:02.678Z,7.90
2017-11-03T18:26:29.023Z,7.90
2017-11-03T18:28:55.398Z,7.90
2017-11-03T18:31:21.763Z,7.90
2017-11-03T18:33:48.187Z,7.90
2017-11-03T18:36:18.110Z,7.80
2017-11-03T18:38:44.467Z,7.90
2017-11-03T18:41:12.096Z,7.90
2017-11-03T18:43:40.075Z,7.80
2017-11-03T18:46:08.353Z,7.80
2017-11-03T18:48:36.882Z,7.70
2017-11-03T18:51:03.942Z,7.70
2017-11-03T18:53:30.338Z,7.60
2017-11-03T18:55:56.666Z,7.60
2017-11-03T18:58:23.010Z,7.60
2017-11-03T19:00:51.302Z,7.60
2017-11-03T19:03:19.474Z,7.60
2017-11-03T19:05:47.612Z,7.50
2017-11-03T19:08:16.275Z,7.60
2017-11-03T19:10:43.261Z,7.60
2017-11-03T19:13:12.401Z,7.60
2017-11-03T19:15:41.164Z,7.60
2017-11-03T19:18:07.555Z,7.60
2017-11-03T19:20:34.865Z,7.70
2017-11-03T19:23:03.496Z,7.60
2017-11-03T19:25:34.229Z,7.60
2017-11-03T19:28:02.047Z,7.50
2017-11-03T19:30:29.824Z,7.60
2017-11-03T19:32:57.651Z,7.60
2017-11-03T19:35:25.455Z,7.50
2017-11-03T19:37:56.647Z,7.50
2017-11-03T19:40:23.723Z,7.60
2017-11-03T19:42:50.082Z,7.50
2017-11-03T19:45:16.417Z,7.60
2017-11-03T19:47:42.738Z,7.50
2017-11-03T19:50:09.061Z,7.50
2017-11-03T19:52:35.411Z,7.50
2017-11-03T19:55:01.735Z,7.50
2017-11-03T19:57:28.067Z,7.50
2017-11-03T19:59:54.422Z,7.50
2017-11-03T20:02:20.746Z,7.40
2017-11-03T20:04:47.103Z,7.40
2017-11-03T20:07:14.154Z,7.40
2017-11-03T20:09:41.247Z,7.40
2017-11-03T20:12:07.594Z,7.30
2017-11-03T20:14:33.918Z,7.40
2017-11-03T20:17:00.234Z,7.30
2017-11-03T20:19:26.587Z,7.30
2017-11-03T20:21:52.935Z,7.30
2017-11-03T20:24:19.281Z,7.30
2017-11-03T20:26:46.382Z,7.20
2017-11-03T20:29:12.718Z,7.20
2017-11-03T20:31:39.050Z,7.20
2017-11-03T20:34:05.416Z,7.10
2017-11-03T20:36:32.520Z,7.10
2017-11-03T20:38:58.864Z,7.10
2017-11-03T20:41:25.367Z,7.10
2017-11-03T20:43:52.619Z,7.10
2017-11-03T20:46:19.378Z,7.10
2017-11-03T20:48:45.704Z,7.10
2017-11-03T20:51:12.052Z,7.00
2017-11-03T20:53:38.374Z,7.10
2017-11-03T20:56:05.614Z,7.10
2017-11-03T20:58:32.862Z,7.10
2017-11-03T21:00:59.219Z,7.20
2017-11-03T21:03:25.556Z,7.20
2017-11-03T21:05:51.923Z,7.20
2017-11-03T21:08:19.882Z,7.20
2017-11-03T21:10:47.022Z,7.20
2017-11-03T21:13:13.358Z,7.10
2017-11-03T21:15:41.459Z,7.20
2017-11-03T21:18:07.791Z,7.10
2017-11-03T21:20:34.172Z,7.20
2017-11-03T21:23:00.511Z,7.10
2017-11-03T21:25:26.842Z,7.10
2017-11-03T21:27:53.190Z,7.10
2017-11-03T21:30:20.264Z,7.10
2017-11-03T21:32:46.619Z,7.00
2017-11-03T21:35:12.977Z,7.10
2017-11-03T21:37:39.305Z,7.00
2017-11-03T21:40:05.650Z,7.00
2017-11-03T21:42:32.758Z,6.90
2017-11-03T21:44:59.089Z,6.90
2017-11-03T21:47:25.419Z,6.90
2017-11-03T21:49:51.807Z,6.90
2017-11-03T21:52:18.143Z,6.90
2017-11-03T21:54:44.507Z,6.90
2017-11-03T21:57:10.831Z,6.90
2017-11-03T21:59:37.175Z,6.90
2017-11-03T22:02:03.556Z,6.90
2017-11-03T22:04:30.674Z,6.90
2017-11-03T22:06:57.028Z,6.90
2017-11-03T22:09:24.110Z,6.90
2017-11-03T22:11:50.435Z,6.90
2017-11-03T22:14:16.783Z,6.90
2017-11-03T22:16:43.110Z,6.80
2017-11-03T22:19:09.430Z,6.80
2017-11-03T22:21:35.778Z,6.80
2017-11-03T22:24:02.107Z,6.80
2017-11-03T22:26:28.430Z,6.70
2017-11-03T22:28:54.787Z,6.70
2017-11-03T22:31:21.124Z,6.60
2017-11-03T22:33:47.446Z,6.50
2017-11-03T22:36:14.791Z,6.50
2017-11-03T22:38:41.202Z,6.50
2017-11-03T22:41:07.542Z,6.40
2017-11-03T22:43:33.877Z,6.40
2017-11-03T22:46:00.238Z,6.40
2017-11-03T22:48:26.607Z,6.30
2017-11-03T22:50:52.958Z,6.30
2017-11-03T22:53:19.280Z,6.30
2017-11-03T22:55:45.640Z,6.20
2017-11-03T22:58:11.960Z,6.10
2017-11-03T23:00:38.326Z,6.00
2017-11-03T23:03:05.406Z,5.80
2017-11-03T23:05:31.783Z,5.80
2017-11-03T23:07:58.102Z,5.80
2017-11-03T23:10:24.414Z,5.80
2017-11-03T23:12:50.764Z,5.70
2017-11-03T23:15:17.093Z,5.70
2017-11-03T23:17:43.442Z,5.70
2017-11-03T23:20:09.809Z,5.60
2017-11-03T23:22:36.144Z,5.60
2017-11-03T23:25:02.572Z,5.60
2017-11-03T23:27:28.898Z,5.50
2017-11-03T23:29:55.988Z,5.40
2017-11-03T23:32:22.343Z,5.40
2017-11-03T23:34:48.684Z,5.40
2017-11-03T23:37:15.015Z,5.40
2017-11-03T23:39:42.135Z,5.30
2017-11-03T23:42:08.501Z,5.30
2017-11-03T23:44:35.591Z,5.20
2017-11-03T23:47:01.928Z,5.10
2017-11-03T23:49:28.266Z,5.10
2017-11-03T23:51:54.999Z,5.10
2017-11-03T23:54:21.321Z,5.10
2017-11-03T23:56:47.675Z,5.10
2017-11-03T23:59:14.033Z,5.10
